createdAt,value
2023-01-12T00:02:25.314Z,13.70
2023-01-12T00:05:52.302Z,13.90
2023-01-12T00:09:18.742Z,14.00
2023-01-12T00:12:45.285Z,13.30
2023-01-12T00:16:38.304Z,13.50
2023-01-12T00:20:06.255Z,13.40
2023-01-12T00:23:32.966Z,15.30
2023-01-12T00:27:01.787Z,14.20
2023-01-12T00:30:28.446Z,14.80
2023-01-12T00:33:55.089Z,15.80
2023-01-12T00:37:21.908Z,14.80
2023-01-12T00:40:48.430Z,15.70
2023-01-12T00:44:37.923Z,17.10
2023-01-12T00:48:04.604Z,15.60
2023-01-12T00:51:30.893Z,16.40
2023-01-12T00:54:57.550Z,15.30
2023-01-12T00:58:24.245Z,16.30
2023-01-12T01:01:50.734Z,16.60
2023-01-12T01:05:18.865Z,16.60
2023-01-12T01:08:45.455Z,17.30
2023-01-12T01:12:11.915Z,17.20
2023-01-12T01:15:39.903Z,17.40
2023-01-12T01:19:06.888Z,17.60
2023-01-12T01:22:34.339Z,17.80
2023-01-12T01:26:05.272Z,16.50
2023-01-12T01:29:31.703Z,16.60
2023-01-12T01:32:58.829Z,16.60
2023-01-12T01:36:26.080Z,14.90
2023-01-12T01:39:53.009Z,16.50
2023-01-12T01:43:23.831Z,16.40
2023-01-12T01:47:14.007Z,15.90
2023-01-12T01:50:43.217Z,15.60
2023-01-12T01:54:09.724Z,15.60
2023-01-12T01:57:43.653Z,13.90
2023-01-12T02:01:11.412Z,14.10
2023-01-12T02:04:39.319Z,13.60
2023-01-12T02:08:16.821Z,13.90
2023-01-12T02:12:01.213Z,14.20
2023-01-12T02:16:01.787Z,14.30
2023-01-12T02:19:56.033Z,16.80
2023-01-12T02:24:13.375Z,15.90
2023-01-12T02:28:13.517Z,18.50
2023-01-12T02:31:47.534Z,18.50
2023-01-12T02:35:23.219Z,18.90
2023-01-12T02:38:53.560Z,18.20
2023-01-12T02:42:45.981Z,18.80
2023-01-12T02:46:23.930Z,19.40
2023-01-12T02:49:57.627Z,21.10
2023-01-12T02:53:31.398Z,19.60
2023-01-12T02:57:02.497Z,19.60
2023-01-12T03:00:30.650Z,18.30
2023-01-12T03:04:03.570Z,17.60
2023-01-12T03:07:43.145Z,17.90
2023-01-12T03:11:17.668Z,15.80
2023-01-12T03:14:50.259Z,16.00
2023-01-12T03:18:23.467Z,15.30
2023-01-12T03:21:53.256Z,16.00
2023-01-12T03:25:22.669Z,15.00
2023-01-12T03:29:05.109Z,14.50
2023-01-12T03:32:32.284Z,14.00
2023-01-12T03:36:07.487Z,14.60
2023-01-12T03:39:47.109Z,13.60
2023-01-12T03:43:19.301Z,13.20
2023-01-12T03:46:53.310Z,13.60
2023-01-12T03:50:25.357Z,13.80
2023-01-12T03:53:54.024Z,13.20
2023-01-12T03:57:22.006Z,14.00
2023-01-12T04:00:49.637Z,13.40
2023-01-12T04:04:16.692Z,13.10
2023-01-12T04:07:43.569Z,12.90
2023-01-12T04:11:24.382Z,12.10
2023-01-12T04:14:52.165Z,12.20
2023-01-12T04:18:19.161Z,16.20
2023-01-12T04:22:03.253Z,46.00
2023-01-12T04:29:10.160Z,10.40
2023-01-12T04:32:37.139Z,10.40
2023-01-12T04:36:03.572Z,13.00
2023-01-12T04:39:29.697Z,10.90
2023-01-12T04:43:07.424Z,11.10
2023-01-12T04:46:34.965Z,12.70
2023-01-12T04:50:01.484Z,11.20
2023-01-12T04:53:28.166Z,10.70
2023-01-12T04:56:55.007Z,10.00
2023-01-12T05:00:22.644Z,10.90
2023-01-12T05:03:49.516Z,11.70
2023-01-12T05:07:16.635Z,11.90
2023-01-12T05:10:43.570Z,12.40
2023-01-12T05:14:10.066Z,12.00
2023-01-12T05:17:36.654Z,12.10
2023-01-12T05:21:03.339Z,12.90
2023-01-12T05:24:29.611Z,13.10
2023-01-12T05:27:59.064Z,11.40
2023-01-12T05:31:26.016Z,12.20
2023-01-12T05:34:54.064Z,12.50
2023-01-12T05:38:20.799Z,11.40
2023-01-12T05:42:01.044Z,12.00
2023-01-12T05:45:28.051Z,11.90
2023-01-12T05:48:56.855Z,12.40
2023-01-12T05:52:24.413Z,12.10
2023-01-12T05:55:51.174Z,11.00
2023-01-12T05:59:18.594Z,10.70
2023-01-12T06:02:46.538Z,10.50
2023-01-12T06:06:13.862Z,11.10
2023-01-12T06:09:40.660Z,12.80
2023-01-12T06:13:26.110Z,12.40
2023-01-12T06:16:53.152Z,12.50
2023-01-12T06:20:20.498Z,13.30
2023-01-12T06:23:47.264Z,12.70
2023-01-12T06:27:13.949Z,12.30
2023-01-12T06:30:58.199Z,12.80
2023-01-12T06:34:24.633Z,12.60
2023-01-12T06:37:57.033Z,13.80
2023-01-12T06:41:41.142Z,13.00
2023-01-12T06:45:10.864Z,13.50
2023-01-12T06:48:38.734Z,14.20
2023-01-12T06:52:06.249Z,15.90
2023-01-12T06:55:34.294Z,14.00
2023-01-12T06:59:01.451Z,13.00
2023-01-12T07:02:28.790Z,12.50
2023-01-12T07:05:55.305Z,10.90
2023-01-12T07:09:22.227Z,11.20
2023-01-12T07:12:48.462Z,11.00
2023-01-12T07:16:15.313Z,11.40
2023-01-12T07:19:41.840Z,11.20
2023-01-12T07:23:09.241Z,10.30
2023-01-12T07:26:36.624Z,10.00
2023-01-12T07:30:03.221Z,9.50
2023-01-12T07:33:29.952Z,9.00
2023-01-12T07:36:56.393Z,8.50
2023-01-12T07:40:23.383Z,8.10
2023-01-12T07:43:50.357Z,8.20
2023-01-12T07:47:17.187Z,8.10
2023-01-12T07:50:43.932Z,6.90
2023-01-12T07:54:11.398Z,7.20
2023-01-12T07:57:39.646Z,8.10
2023-01-12T08:01:07.359Z,10.00
2023-01-12T08:04:37.968Z,8.80
2023-01-12T08:08:08.520Z,6.60
2023-01-12T08:11:38.446Z,6.50
2023-01-12T08:15:12.250Z,6.50
2023-01-12T08:18:46.585Z,7.70
2023-01-12T08:22:23.409Z,5.80
2023-01-12T08:25:57.567Z,5.70
2023-01-12T08:29:34.054Z,6.50
2023-01-12T08:33:05.631Z,5.90
2023-01-12T08:36:33.190Z,6.10
2023-01-12T08:40:02.522Z,6.30
2023-01-12T08:43:47.671Z,6.00
2023-01-12T08:47:20.997Z,6.90
2023-01-12T08:50:47.795Z,5.90
2023-01-12T08:54:17.006Z,5.70
2023-01-12T08:57:44.914Z,5.80
2023-01-12T09:01:17.476Z,6.00
2023-01-12T09:04:45.710Z,4.90
2023-01-12T09:08:16.256Z,5.30
2023-01-12T09:11:47.215Z,4.30
2023-01-12T09:15:15.200Z,4.70
2023-01-12T09:18:42.282Z,5.00
2023-01-12T09:22:09.249Z,5.30
2023-01-12T09:25:37.449Z,5.50
2023-01-12T09:29:05.523Z,5.00
2023-01-12T09:32:36.799Z,4.40
2023-01-12T09:36:09.169Z,4.20
2023-01-12T09:39:36.183Z,4.90
2023-01-12T09:43:20.505Z,4.50
2023-01-12T09:47:03.160Z,5.40
2023-01-12T09:50:33.750Z,4.20
2023-01-12T09:54:00.842Z,3.80
2023-01-12T09:58:04.389Z,4.00
2023-01-12T10:01:31.512Z,3.60
2023-01-12T10:04:59.874Z,4.10
2023-01-12T10:08:34.195Z,4.10
2023-01-12T10:12:09.106Z,3.90
2023-01-12T10:15:45.250Z,4.60
2023-01-12T10:19:23.827Z,4.00
2023-01-12T10:22:54.035Z,4.40
2023-01-12T10:26:24.846Z,4.40
2023-01-12T10:29:53.752Z,4.30
2023-01-12T10:33:22.178Z,4.00
2023-01-12T10:36:54.913Z,3.90
2023-01-12T10:40:31.605Z,3.80
2023-01-12T10:44:17.654Z,4.30
2023-01-12T10:47:49.597Z,3.80
2023-01-12T10:51:29.254Z,4.00
2023-01-12T10:54:58.812Z,4.20
2023-01-12T10:58:31.204Z,3.80
2023-01-12T11:02:16.599Z,4.50
2023-01-12T11:05:45.006Z,3.60
2023-01-12T11:09:26.642Z,4.10
2023-01-12T11:13:00.316Z,4.60
2023-01-12T11:16:30.088Z,4.10
2023-01-12T11:20:02.046Z,3.90
2023-01-12T11:23:34.799Z,4.40
2023-01-12T11:27:04.145Z,3.60
2023-01-12T11:30:38.221Z,4.10
2023-01-12T11:34:14.200Z,4.10
2023-01-12T11:37:43.506Z,3.70
2023-01-12T11:41:21.070Z,4.20
2023-01-12T11:44:56.754Z,4.00
2023-01-12T11:48:29.830Z,4.00
2023-01-12T11:51:59.321Z,4.10
2023-01-12T11:55:36.468Z,4.80
2023-01-12T11:59:13.719Z,3.80
2023-01-12T12:02:42.650Z,4.10
2023-01-12T12:06:25.818Z,4.00
2023-01-12T12:10:07.041Z,3.20
2023-01-12T12:13:39.344Z,3.20
2023-01-12T12:17:12.321Z,3.40
2023-01-12T12:20:46.534Z,4.40
2023-01-12T12:24:39.850Z,3.60
2023-01-12T12:28:19.508Z,3.90
2023-01-12T12:32:17.841Z,3.50
2023-01-12T12:35:59.679Z,3.40
2023-01-12T12:43:51.706Z,3.20
2023-01-12T12:47:50.768Z,4.00
2023-01-12T12:51:18.347Z,3.50
2023-01-12T12:54:45.371Z,3.90
2023-01-12T12:58:41.793Z,3.90
2023-01-12T13:02:36.040Z,3.90
2023-01-12T13:06:20.170Z,3.60
2023-01-12T13:09:47.251Z,3.80
2023-01-12T13:13:33.879Z,4.10
2023-01-12T13:17:04.566Z,4.20
2023-01-12T13:20:59.952Z,3.70
2023-01-12T13:24:42.406Z,3.90
2023-01-12T13:28:22.715Z,3.40
2023-01-12T13:31:49.439Z,3.20
2023-01-12T13:36:05.850Z,3.20
2023-01-12T13:39:44.668Z,3.00
2023-01-12T13:43:27.803Z,3.00
2023-01-12T13:46:59.577Z,3.50
2023-01-12T13:50:28.152Z,3.20
2023-01-12T13:54:04.556Z,3.10
2023-01-12T13:57:32.839Z,3.50
2023-01-12T14:01:01.814Z,3.40
2023-01-12T14:08:46.325Z,3.50
2023-01-12T14:12:39.406Z,3.30
2023-01-12T14:16:31.554Z,3.20
2023-01-12T14:19:58.024Z,3.00
2023-01-12T14:23:30.207Z,4.00
2023-01-12T14:26:57.072Z,3.60
2023-01-12T14:30:25.130Z,3.50
2023-01-12T14:33:56.960Z,3.40
2023-01-12T14:37:31.633Z,2.80
2023-01-12T14:41:03.922Z,4.10
2023-01-12T14:44:48.764Z,3.90
2023-01-12T14:48:34.724Z,3.00
2023-01-12T14:52:20.692Z,3.40
2023-01-12T14:55:47.784Z,3.10
2023-01-12T14:59:23.822Z,5.30
2023-01-12T15:02:53.418Z,6.40
2023-01-12T15:06:20.589Z,12.80
2023-01-12T15:09:56.354Z,5.60
2023-01-12T15:13:29.974Z,5.20
2023-01-12T15:17:15.212Z,5.90
2023-01-12T15:21:04.414Z,12.30
2023-01-12T15:24:50.379Z,8.10
2023-01-12T15:28:17.532Z,12.50
2023-01-12T15:31:44.699Z,6.80
2023-01-12T15:35:18.599Z,5.10
2023-01-12T15:38:45.729Z,5.90
2023-01-12T15:42:20.315Z,6.80
2023-01-12T15:45:56.689Z,6.20
2023-01-12T15:49:23.275Z,5.30
2023-01-12T15:52:52.375Z,5.10
2023-01-12T15:56:20.042Z,5.50
2023-01-12T15:59:48.493Z,4.50
2023-01-12T16:03:48.947Z,5.10
2023-01-12T16:07:03.124Z,8.30
2023-01-12T16:10:31.247Z,9.00
2023-01-12T16:13:58.381Z,8.40
2023-01-12T16:17:25.898Z,7.90
2023-01-12T16:20:53.509Z,5.90
2023-01-12T16:24:20.516Z,7.20
2023-01-12T16:27:48.354Z,5.90
2023-01-12T16:31:18.341Z,5.80
2023-01-12T16:34:46.312Z,5.40
2023-01-12T16:38:16.547Z,4.80
2023-01-12T16:41:44.062Z,5.50
2023-01-12T16:45:12.489Z,4.80
2023-01-12T16:48:40.060Z,4.30
2023-01-12T16:52:08.215Z,4.80
2023-01-12T16:55:37.963Z,3.80
2023-01-12T16:59:05.493Z,5.20
2023-01-12T17:02:32.531Z,4.50
2023-01-12T17:05:59.755Z,5.80
2023-01-12T17:09:26.426Z,5.90
2023-01-12T17:12:58.569Z,5.00
2023-01-12T17:16:29.605Z,5.30
2023-01-12T17:19:57.199Z,4.80
2023-01-12T17:23:23.733Z,4.60
2023-01-12T17:26:52.761Z,4.60
2023-01-12T17:30:23.177Z,4.50
2023-01-12T17:33:52.717Z,4.10
2023-01-12T17:37:22.642Z,6.40
2023-01-12T17:40:52.804Z,4.30
2023-01-12T17:44:25.512Z,4.30
2023-01-12T17:47:53.155Z,4.20
2023-01-12T17:51:21.657Z,3.70
2023-01-12T17:54:51.151Z,3.50
2023-01-12T17:58:19.160Z,4.20
2023-01-12T18:01:53.187Z,5.60
2023-01-12T18:05:26.166Z,5.40
2023-01-12T18:09:01.491Z,4.50
2023-01-12T18:12:31.879Z,4.60
2023-01-12T18:16:03.491Z,5.50
2023-01-12T18:19:34.975Z,4.50
2023-01-12T18:23:03.834Z,4.00
2023-01-12T18:26:39.342Z,3.50
2023-01-12T18:30:15.387Z,3.80
2023-01-12T18:34:02.800Z,3.60
2023-01-12T18:37:36.866Z,4.00
2023-01-12T18:41:27.601Z,3.60
2023-01-12T18:45:01.836Z,4.00
2023-01-12T18:48:32.213Z,4.10
2023-01-12T18:52:24.275Z,7.00
2023-01-12T18:56:02.295Z,5.30
2023-01-12T18:59:41.786Z,5.10
2023-01-12T19:03:12.759Z,4.60
2023-01-12T19:06:47.424Z,4.50
2023-01-12T19:10:19.186Z,4.10
2023-01-12T19:14:06.467Z,4.20
2023-01-12T19:17:37.503Z,4.40
2023-01-12T19:21:28.051Z,4.60
2023-01-12T19:25:13.753Z,6.00
2023-01-12T19:28:41.245Z,4.40
2023-01-12T19:32:10.526Z,4.20
2023-01-12T19:35:41.064Z,4.30
2023-01-12T19:39:10.883Z,4.60
2023-01-12T19:42:54.951Z,4.40
2023-01-12T19:46:24.672Z,4.30
2023-01-12T19:49:51.621Z,4.30
2023-01-12T19:53:21.983Z,4.00
2023-01-12T19:56:53.817Z,13.70
2023-01-12T20:00:21.711Z,4.70
2023-01-12T20:03:51.323Z,5.40
2023-01-12T20:07:19.619Z,5.20
2023-01-12T20:10:53.916Z,4.80
2023-01-12T20:14:22.471Z,4.80
2023-01-12T20:17:50.498Z,4.30
2023-01-12T20:21:17.468Z,9.00
2023-01-12T20:24:44.986Z,5.00
2023-01-12T20:28:15.131Z,10.90
2023-01-12T20:31:42.203Z,5.80
2023-01-12T20:35:12.715Z,4.80
2023-01-12T20:38:41.103Z,4.70
2023-01-12T20:42:12.581Z,4.40
2023-01-12T20:45:41.027Z,4.10
2023-01-12T20:49:10.687Z,4.70
2023-01-12T20:52:39.383Z,5.50
2023-01-12T20:56:08.295Z,4.60
2023-01-12T20:59:36.629Z,4.00
2023-01-12T21:03:06.172Z,4.00
2023-01-12T21:06:36.361Z,10.90
2023-01-12T21:10:14.573Z,3.60
2023-01-12T21:13:42.506Z,4.10
2023-01-12T21:17:13.219Z,4.20
2023-01-12T21:20:44.850Z,7.10
2023-01-12T21:24:15.692Z,4.00
2023-01-12T21:27:52.228Z,3.60
2023-01-12T21:31:24.781Z,4.20
2023-01-12T21:34:52.841Z,3.70
2023-01-12T21:38:19.711Z,3.50
2023-01-12T21:42:04.219Z,3.90
2023-01-12T21:45:38.209Z,3.80
2023-01-12T21:49:11.377Z,3.50
2023-01-12T21:52:44.454Z,4.10
2023-01-12T21:56:14.911Z,3.50
2023-01-12T21:59:59.611Z,3.20
2023-01-12T22:03:32.735Z,4.20
2023-01-12T22:07:00.739Z,4.60
2023-01-12T22:10:32.911Z,3.30
2023-01-12T22:14:09.705Z,3.70
2023-01-12T22:17:36.888Z,4.10
2023-01-12T22:21:17.607Z,4.70
2023-01-12T22:24:48.147Z,4.40
2023-01-12T22:28:15.568Z,4.70
2023-01-12T22:31:44.324Z,5.10
2023-01-12T22:35:15.202Z,4.80
2023-01-12T22:38:49.855Z,4.80
2023-01-12T22:42:21.829Z,4.30
2023-01-12T22:46:00.669Z,4.20
2023-01-12T22:49:31.878Z,4.90
2023-01-12T22:53:02.569Z,4.40
2023-01-12T22:56:33.066Z,4.50
2023-01-12T23:00:02.840Z,4.90
2023-01-12T23:03:34.885Z,4.30
2023-01-12T23:07:03.284Z,4.50
2023-01-12T23:10:35.454Z,4.20
2023-01-12T23:14:08.634Z,4.20
2023-01-12T23:17:40.421Z,3.70
2023-01-12T23:21:25.163Z,5.20
2023-01-12T23:24:56.203Z,4.70
2023-01-12T23:28:30.045Z,4.70
2023-01-12T23:32:07.445Z,4.70
2023-01-12T23:35:46.681Z,4.50
2023-01-12T23:39:14.740Z,4.00
2023-01-12T23:42:45.065Z,4.00
2023-01-12T23:46:17.267Z,4.20
2023-01-12T23:49:46.662Z,4.10
2023-01-12T23:53:15.103Z,4.30
2023-01-12T23:56:42.448Z,4.10
